Weather at London Gatwick Airport

Public forecast

Using degrees Celsius for public forecast. Weather courtesy of forecast.io.

Current aviation weather report (METAR) for London Gatwick Airport

Retrieved 2021/04/11 09:20 UTC (13 minutes ago):

EGKK 110920Z 01010KT 9999 SCT024 06/M01 Q1018

Aviation forecast (TAF) for London Gatwick Airport

Retrieved 2021/04/11 06:00 UTC (4 hours ago):

TAF EGKK 110457Z 1106/1212 36010KT 9999 FEW035 PROB30 TEMPO 1112/1118 8000 -SHRA BECMG 1117/1120 28005KT PROB30 TEMPO 1118/1122 4000 SHRA TEMPO 1205/1212 8000 -RA BKN014 PROB30 TEMPO 1205/1209 -RASN